Time;durP1;ratioP1;P1;durP2;ratioP2;P2;SDS_P1;SDS_P2;PMS_P1;PMS_P2;Temp;Humidity;BMP_temperature;BMP_pressure;BME280_temperature;BME280_humidity;BME280_pressure;Samples;Min_cycle;Max_cycle;Signal;HPM_P1;HPM_P2
2023/12/01 00:01:10;;;;;;;7.97;4.37;;;;;;;-145.69;59.98;52363.19;5065603;28;20199;-81
2023/12/01 00:03:38;;;;;;;7.67;4.10;;;;;;;-145.69;60.13;52345.38;5075185;28;20202;-81
2023/12/01 00:06:05;;;;;;;7.57;3.87;;;;;;;-145.69;59.99;52365.16;5075056;28;20210;-82
2023/12/01 00:08:31;;;;;;;8.97;4.40;;;;;;;-145.69;60.39;52353.28;5075004;28;20246;-82
2023/12/01 00:10:58;;;;;;;7.67;3.70;;;;;;;-145.69;60.57;52333.47;5074845;28;20199;-82
2023/12/01 00:13:24;;;;;;;8.88;5.25;;;;;;;-145.69;61.36;52349.31;5074324;28;20431;-81
2023/12/01 00:15:51;;;;;;;7.23;4.43;;;;;;;-145.69;60.44;52353.28;5075037;28;20218;-81
2023/12/01 00:18:17;;;;;;;6.03;3.70;;;;;;;-145.69;60.24;52381.00;5074958;28;20198;-81
2023/12/01 00:20:45;;;;;;;7.33;4.40;;;;;;;-145.69;60.36;52325.56;5074801;28;20203;-81
2023/12/01 00:23:11;;;;;;;7.97;4.33;;;;;;;-145.69;60.30;52367.16;5074639;28;20227;-81
2023/12/01 00:25:38;;;;;;;7.93;4.97;;;;;;;-145.69;60.43;52353.28;5074821;28;20289;-81
2023/12/01 00:28:04;;;;;;;8.93;4.97;;;;;;;-145.69;60.25;52341.41;5074621;28;20197;-81
2023/12/01 00:30:31;;;;;;;7.70;4.43;;;;;;;-145.69;60.41;52333.47;5070739;28;20588;-80
2023/12/01 00:32:57;;;;;;;9.77;5.03;;;;;;;-145.69;60.65;52325.56;5074580;28;20199;-81
2023/12/01 00:35:24;;;;;;;9.23;5.00;;;;;;;-145.69;60.74;52365.16;5074445;28;20207;-81
2023/12/01 00:37:52;;;;;;;8.70;4.87;;;;;;;-145.69;60.90;52367.16;5074762;28;20206;-81
2023/12/01 00:40:18;;;;;;;6.13;4.30;;;;;;;-145.69;60.38;52305.75;5074396;28;20201;-81
2023/12/01 00:42:45;;;;;;;8.33;4.10;;;;;;;-145.69;60.54;52388.94;5074451;28;20234;-81
2023/12/01 00:45:11;;;;;;;9.30;4.90;;;;;;;-145.69;60.18;52345.38;5074348;28;20198;-81
2023/12/01 00:47:37;;;;;;;6.67;3.97;;;;;;;-145.69;60.29;52313.69;5074491;28;20210;-81
2023/12/01 00:50:05;;;;;;;5.33;3.07;;;;;;;-145.69;60.36;52359.22;5074105;28;20198;-81
2023/12/01 00:52:32;;;;;;;7.00;3.60;;;;;;;-145.69;60.29;52361.22;5074378;28;20535;-81
2023/12/01 00:55:00;;;;;;;5.90;3.50;;;;;;;-145.69;60.28;52347.34;5073966;28;20543;-81
2023/12/01 00:57:27;;;;;;;6.53;3.83;;;;;;;-145.69;60.16;52343.38;5074220;28;20214;-81
2023/12/01 00:59:54;;;;;;;5.53;3.23;;;;;;;-145.69;60.69;52349.31;5074277;28;20210;-81
2023/12/01 01:02:20;;;;;;;6.37;3.70;;;;;;;-145.69;60.03;52333.47;5054696;28;20231;-81
2023/12/01 01:04:47;;;;;;;6.23;3.47;;;;;;;-145.69;60.20;52349.31;5053829;28;20195;-81
2023/12/01 01:07:13;;;;;;;5.23;3.57;;;;;;;-145.69;60.01;52361.22;5053975;28;20219;-81
2023/12/01 01:09:40;;;;;;;5.17;3.20;;;;;;;-145.69;60.32;52357.25;5053646;28;20235;-81
2023/12/01 01:12:08;;;;;;;6.20;3.10;;;;;;;-145.69;60.55;52341.41;5053827;28;20199;-81
2023/12/01 01:14:35;;;;;;;3.40;2.83;;;;;;;-145.69;60.65;52361.22;5059477;28;20520;-80
2023/12/01 01:17:02;;;;;;;4.93;3.00;;;;;;;-145.69;60.28;52388.94;5073446;28;20210;-80
2023/12/01 01:19:28;;;;;;;3.90;2.47;;;;;;;-145.69;60.68;52369.13;5073701;28;20682;-80
2023/12/01 01:21:55;;;;;;;4.17;2.60;;;;;;;-145.69;61.05;52369.13;5073498;28;20222;-80
2023/12/01 01:24:21;;;;;;;3.10;2.60;;;;;;;-145.69;60.86;52386.97;5073732;28;20207;-80
2023/12/01 01:26:48;;;;;;;3.33;2.50;;;;;;;-145.69;60.92;52371.13;5073410;28;20206;-80
2023/12/01 01:29:16;;;;;;;6.07;2.50;;;;;;;-145.69;60.52;52349.31;5073506;28;20195;-81
2023/12/01 01:31:42;;;;;;;3.43;2.17;;;;;;;-145.69;60.71;52388.94;5069188;28;20596;-81
2023/12/01 01:34:09;;;;;;;3.87;2.60;;;;;;;-145.69;60.78;52361.22;5073562;28;20191;-80
2023/12/01 01:36:36;;;;;;;3.70;2.30;;;;;;;-145.69;60.84;52355.28;5073569;28;20615;-80
2023/12/01 01:39:02;;;;;;;5.47;3.07;;;;;;;-145.69;60.44;52367.16;5073146;28;20215;-80
2023/12/01 01:41:29;;;;;;;3.43;2.47;;;;;;;-145.69;60.51;52345.38;5073255;28;20207;-80
2023/12/01 01:43:55;;;;;;;6.13;3.30;;;;;;;-145.69;60.14;52345.38;5073172;28;20199;-80
2023/12/01 01:46:23;;;;;;;5.47;3.57;;;;;;;-145.69;60.15;52353.28;5072573;28;20207;-81
2023/12/01 01:48:50;;;;;;;7.17;3.77;;;;;;;-145.69;60.37;52359.22;5073220;28;20206;-80
2023/12/01 01:51:17;;;;;;;7.20;4.40;;;;;;;-145.69;60.54;52365.16;5073062;28;20688;-79
2023/12/01 01:53:43;;;;;;;7.63;3.90;;;;;;;-145.69;60.85;52339.44;5073205;28;20203;-81
2023/12/01 01:56:13;;;;;;;7.67;4.30;;;;;;;-145.69;60.03;52357.25;5065631;28;20235;-80
2023/12/01 01:58:39;;;;;;;6.13;4.07;;;;;;;-145.69;60.78;52357.25;5053011;28;20281;-80
2023/12/01 02:01:07;;;;;;;6.30;3.80;;;;;;;-145.69;60.79;52333.47;5061617;28;20673;-80
2023/12/01 02:03:36;;;;;;;6.53;4.03;;;;;;;-145.69;60.62;52315.66;5073026;28;20230;-80
2023/12/01 02:06:06;;;;;;;9.53;4.93;;;;;;;-145.69;60.46;52361.22;5073086;28;20210;-80
2023/12/01 02:08:33;;;;;;;8.00;4.23;;;;;;;-145.69;60.72;52337.44;5072225;28;20245;-80
2023/12/01 02:11:01;;;;;;;6.87;4.00;;;;;;;-145.69;60.51;52377.06;5072571;28;20711;-80
2023/12/01 02:13:28;;;;;;;6.13;3.83;;;;;;;-145.69;60.54;52357.25;5073038;28;20210;-80
2023/12/01 02:15:55;;;;;;;5.60;3.47;;;;;;;-145.69;60.31;52349.31;5073140;28;20244;-80
2023/12/01 02:18:22;;;;;;;4.67;2.90;;;;;;;-145.69;60.64;52339.44;5073070;28;20607;-80
2023/12/01 02:20:51;;;;;;;4.40;3.00;;;;;;;-145.69;60.36;52373.09;5072883;28;20214;-80
2023/12/01 02:23:19;;;;;;;4.97;3.30;;;;;;;-145.69;60.69;52394.88;5072675;28;20222;-80
2023/12/01 02:25:45;;;;;;;5.23;3.63;;;;;;;-145.69;60.71;52353.28;5072651;28;20688;-80
2023/12/01 02:28:12;;;;;;;6.87;3.93;;;;;;;-145.69;60.56;52339.44;5072798;28;20214;-81
2023/12/01 02:30:39;;;;;;;7.63;4.87;;;;;;;-145.69;60.43;52341.41;5072475;28;20201;-80
2023/12/01 02:33:05;;;;;;;8.37;4.20;;;;;;;-145.69;60.51;52341.41;5072783;28;20241;-80
2023/12/01 02:35:32;;;;;;;8.30;4.90;;;;;;;-145.69;60.04;52317.66;5072848;28;20206;-81
2023/12/01 02:37:59;;;;;;;8.27;4.57;;;;;;;-145.69;60.17;52349.31;5072612;28;20209;-80
2023/12/01 02:40:27;;;;;;;9.70;4.97;;;;;;;-145.69;60.25;52325.56;5072537;28;20668;-80
2023/12/01 02:42:54;;;;;;;7.30;4.10;;;;;;;-145.69;60.77;52353.28;5072775;28;20253;-80
2023/12/01 02:45:22;;;;;;;5.87;3.90;;;;;;;-145.69;60.12;52353.28;5072591;28;20289;-80
2023/12/01 02:47:49;;;;;;;5.57;3.37;;;;;;;-145.69;60.45;52343.38;5072482;28;20198;-80
2023/12/01 02:50:16;;;;;;;4.93;3.43;;;;;;;-145.69;60.26;52349.31;5072633;28;20194;-80
2023/12/01 02:52:43;;;;;;;6.97;4.27;;;;;;;-145.69;60.29;52337.44;5072638;28;20645;-80
2023/12/01 02:55:11;;;;;;;6.33;3.60;;;;;;;-145.69;60.45;52343.38;5072446;28;20202;-80
2023/12/01 02:57:40;;;;;;;8.50;4.70;;;;;;;-145.69;60.37;52319.63;5072393;28;20194;-80
2023/12/01 03:00:13;;;;;;;16.77;4.87;;;;;;;-145.69;60.56;52357.25;5072341;28;20203;-80
2023/12/01 03:02:40;;;;;;;8.97;3.93;;;;;;;-145.69;60.52;52349.31;5072426;28;20222;-80
2023/12/01 03:05:07;;;;;;;4.83;3.40;;;;;;;-145.69;60.95;52345.38;5072485;28;20290;-80
2023/12/01 03:07:34;;;;;;;11.17;3.83;;;;;;;-145.69;61.06;52357.25;5072027;28;20290;-80
2023/12/01 03:10:01;;;;;;;6.43;4.17;;;;;;;-145.69;61.19;52361.22;5072334;28;20203;-80
2023/12/01 03:12:27;;;;;;;5.70;4.07;;;;;;;-145.69;60.94;52333.47;5072481;28;20198;-79
2023/12/01 03:14:55;;;;;;;5.17;3.73;;;;;;;-145.69;60.49;52359.22;5072318;28;20681;-80
2023/12/01 03:17:23;;;;;;;5.50;3.80;;;;;;;-145.69;61.16;52317.66;5071404;28;20205;-80
2023/12/01 03:19:50;;;;;;;5.47;3.60;;;;;;;-145.69;60.92;52331.50;5053735;28;20307;-81
2023/12/01 03:22:17;;;;;;;5.20;3.40;;;;;;;-145.69;60.60;52353.28;5055707;28;20203;-80
2023/12/01 03:24:44;;;;;;;6.07;3.70;;;;;;;-145.69;60.66;52349.31;5056046;28;20200;-80
2023/12/01 03:27:11;;;;;;;5.93;4.20;;;;;;;-145.69;60.45;52371.13;5055391;28;20203;-80
2023/12/01 03:29:39;;;;;;;6.37;4.47;;;;;;;-145.69;60.84;52349.31;5055843;28;20566;-80
2023/12/01 03:32:07;;;;;;;16.23;6.07;;;;;;;-145.69;60.61;52317.66;5070701;28;20222;-80
2023/12/01 03:34:34;;;;;;;10.23;5.13;;;;;;;-145.69;60.24;52365.16;5075616;28;20209;-80
2023/12/01 03:37:00;;;;;;;17.23;5.90;;;;;;;-145.69;60.60;52339.44;5075812;28;20278;-80
2023/12/01 03:39:27;;;;;;;8.17;5.23;;;;;;;-145.69;60.77;52341.41;5075457;28;20203;-80
2023/12/01 03:41:53;;;;;;;9.97;5.57;;;;;;;-145.69;60.97;52355.28;5075536;28;20198;-80
2023/12/01 03:44:20;;;;;;;7.43;5.30;;;;;;;-145.69;60.80;52359.22;5075309;28;20226;-80
2023/12/01 03:46:48;;;;;;;10.27;5.13;;;;;;;-145.69;60.61;52327.53;5074956;28;20195;-80
2023/12/01 03:49:16;;;;;;;9.60;4.50;;;;;;;-145.69;60.76;52373.09;5075373;28;20531;-80
2023/12/01 03:51:42;;;;;;;12.90;5.67;;;;;;;-145.69;61.39;52357.25;5075304;28;20538;-80
2023/12/01 03:54:09;;;;;;;7.03;4.87;;;;;;;-145.69;60.81;52331.50;5064198;28;20206;-80
2023/12/01 03:56:36;;;;;;;8.80;5.77;;;;;;;-145.69;61.52;52323.59;5055337;28;20593;-80
2023/12/01 03:59:09;;;;;;;8.33;5.90;;;;;;;-145.69;61.42;52353.28;5055203;28;20569;-80
2023/12/01 04:01:36;;;;;;;7.83;5.17;;;;;;;-145.69;61.19;52309.72;5065983;28;20586;-80
2023/12/01 04:04:04;;;;;;;6.33;4.50;;;;;;;-145.69;61.31;52327.53;5074750;28;20225;-80
2023/12/01 04:06:32;;;;;;;9.13;4.87;;;;;;;-145.69;61.04;52347.34;5075358;28;20592;-80
2023/12/01 04:09:05;;;;;;;7.57;5.43;;;;;;;-145.69;61.94;52357.25;5074276;28;20531;-80
2023/12/01 04:11:31;;;;;;;6.40;4.37;;;;;;;-145.69;61.71;52359.22;5074673;28;20205;-81
2023/12/01 04:13:58;;;;;;;6.57;4.70;;;;;;;-145.69;60.92;52341.41;5075091;28;20206;-80
2023/12/01 04:16:24;;;;;;;6.70;4.47;;;;;;;-145.69;60.79;52349.31;5074887;28;20280;-81
2023/12/01 04:18:51;;;;;;;6.47;4.17;;;;;;;-145.69;61.10;52355.28;5074861;28;20276;-81
2023/12/01 04:21:18;;;;;;;6.77;4.63;;;;;;;-145.69;60.68;52355.28;5075179;28;20203;-81
2023/12/01 04:23:46;;;;;;;6.70;4.50;;;;;;;-145.69;60.79;52341.41;5074682;28;20628;-80
2023/12/01 04:26:13;;;;;;;6.57;4.50;;;;;;;-145.69;61.02;52365.16;5074993;28;20203;-80
2023/12/01 04:28:39;;;;;;;6.77;4.63;;;;;;;-145.69;60.70;52357.25;5074669;28;20290;-80
2023/12/01 04:31:06;;;;;;;5.93;4.20;;;;;;;-145.69;60.85;52394.88;5074228;28;20198;-80
2023/12/01 04:33:33;;;;;;;6.00;3.80;;;;;;;-145.69;60.63;52369.13;5074786;28;20205;-80
2023/12/01 04:35:59;;;;;;;5.83;4.07;;;;;;;-145.69;60.93;52363.19;5074578;28;20202;-80
2023/12/01 04:38:26;;;;;;;12.23;6.93;;;;;;;-145.69;61.01;52390.91;5074691;28;20207;-80
2023/12/01 04:40:55;;;;;;;28.30;11.97;;;;;;;-145.69;61.67;52333.47;5074746;28;20207;-80
2023/12/01 04:43:21;;;;;;;17.83;7.23;;;;;;;-145.69;61.55;52384.97;5074395;28;20225;-80
2023/12/01 04:45:48;;;;;;;9.30;5.73;;;;;;;-145.69;61.56;52317.66;5074614;28;20203;-80
2023/12/01 04:48:14;;;;;;;5.80;4.37;;;;;;;-145.69;61.90;52381.00;5074525;28;20199;-80
2023/12/01 04:50:47;;;;;;;5.47;3.87;;;;;;;-145.69;61.68;52373.09;5074346;28;20203;-81
2023/12/01 04:53:14;;;;;;;5.63;4.30;;;;;;;-145.69;61.41;52345.38;5074364;28;20731;-81
2023/12/01 04:55:40;;;;;;;5.13;4.00;;;;;;;-145.69;61.62;52363.19;5074452;28;20206;-80
2023/12/01 04:58:08;;;;;;;4.57;3.77;;;;;;;-145.69;61.30;52357.25;5074043;28;20206;-80
2023/12/01 05:00:35;;;;;;;6.60;3.97;;;;;;;-145.69;61.83;52345.38;5074306;28;20592;-81
2023/12/01 05:03:04;;;;;;;6.27;3.73;;;;;;;-145.69;62.07;52343.38;5070883;28;20725;-81
2023/12/01 05:05:32;;;;;;;4.83;3.83;;;;;;;-145.69;61.71;52365.16;5068606;28;20203;-80
2023/12/01 05:08:00;;;;;;;4.70;3.70;;;;;;;-145.69;61.49;52363.19;5073850;28;20241;-80
2023/12/01 05:10:28;;;;;;;4.87;3.57;;;;;;;-145.69;61.81;52337.44;5073414;28;20661;-80
2023/12/01 05:12:55;;;;;;;3.93;3.10;;;;;;;-145.69;61.97;52363.19;5057851;28;20199;-80
2023/12/01 05:15:24;;;;;;;4.33;3.47;;;;;;;-145.69;61.48;52371.13;5073819;28;20646;-80
2023/12/01 05:17:53;;;;;;;4.70;3.57;;;;;;;-145.69;61.29;52375.06;5073681;28;20554;-80
2023/12/01 05:20:20;;;;;;;3.67;2.93;;;;;;;-145.69;61.64;52349.31;5073350;28;20206;-80
2023/12/01 05:22:48;;;;;;;4.37;3.07;;;;;;;-145.69;61.75;52333.47;5073598;28;20206;-80
2023/12/01 05:25:15;;;;;;;3.67;2.90;;;;;;;-145.69;61.52;52353.28;5054322;28;20204;-80
2023/12/01 05:27:44;;;;;;;4.20;3.20;;;;;;;-145.69;61.35;52337.44;5053679;28;20195;-80
2023/12/01 05:30:12;;;;;;;4.53;2.90;;;;;;;-145.69;61.14;52369.13;5053524;28;20749;-80
2023/12/01 05:32:41;;;;;;;3.70;3.30;;;;;;;-145.69;61.04;52347.34;5053606;28;20532;-79
2023/12/01 05:35:11;;;;;;;5.50;3.60;;;;;;;-145.69;61.01;52339.44;5053376;28;20211;-80
2023/12/01 05:37:39;;;;;;;5.37;4.03;;;;;;;-145.69;61.59;52369.13;5053566;28;20210;-80
2023/12/01 05:40:08;;;;;;;5.33;3.63;;;;;;;-145.69;61.61;52377.06;5062137;28;20206;-81
2023/12/01 05:42:35;;;;;;;5.13;3.30;;;;;;;-145.69;60.97;52369.13;5072643;28;20227;-80
2023/12/01 05:45:02;;;;;;;5.23;3.80;;;;;;;-145.69;61.26;52333.47;5072262;28;20705;-80
2023/12/01 05:47:28;;;;;;;6.33;3.77;;;;;;;-145.69;61.23;52365.16;5073529;28;20203;-81
2023/12/01 05:49:56;;;;;;;10.47;7.00;;;;;;;-145.69;61.42;52359.22;5073028;28;20212;-80
2023/12/01 05:52:23;;;;;;;13.07;7.30;;;;;;;-145.69;61.39;52386.97;5073095;28;20554;-80
2023/12/01 05:54:52;;;;;;;9.37;5.60;;;;;;;-145.69;61.59;52365.16;5072744;28;20203;-80
2023/12/01 05:57:19;;;;;;;16.50;5.60;;;;;;;-145.69;61.23;52367.16;5072934;28;20194;-80
2023/12/01 05:59:45;;;;;;;8.80;5.67;;;;;;;-145.69;61.22;52383.00;5073020;28;20198;-80
2023/12/01 06:02:12;;;;;;;8.10;5.40;;;;;;;-145.69;61.17;52345.38;5073083;28;20209;-80
2023/12/01 06:04:39;;;;;;;7.63;5.10;;;;;;;-145.69;60.99;52337.44;5068496;28;20609;-80
2023/12/01 06:07:07;;;;;;;7.57;4.23;;;;;;;-145.69;61.39;52349.31;5053199;28;20555;-81
2023/12/01 06:09:35;;;;;;;6.13;4.27;;;;;;;-145.69;61.19;52343.38;5052861;28;20288;-80
2023/12/01 06:12:01;;;;;;;3.93;3.47;;;;;;;-145.69;61.31;52357.25;5072743;28;20217;-80
2023/12/01 06:14:28;;;;;;;5.13;3.83;;;;;;;-145.69;61.16;52345.38;5073185;28;20275;-80
2023/12/01 06:16:54;;;;;;;6.97;4.57;;;;;;;-145.69;61.17;52333.47;5072795;28;20205;-80
2023/12/01 06:19:21;;;;;;;8.23;5.80;;;;;;;-145.69;60.89;52369.13;5072662;28;20198;-80
2023/12/01 06:21:47;;;;;;;11.37;6.60;;;;;;;-145.69;60.97;52361.22;5072866;28;20614;-80
2023/12/01 06:24:15;;;;;;;9.93;5.13;;;;;;;-145.69;61.17;52373.09;5072725;28;20226;-79
2023/12/01 06:26:42;;;;;;;7.17;4.63;;;;;;;-145.69;61.42;52349.31;5072704;28;20213;-80
2023/12/01 06:29:08;;;;;;;6.40;4.00;;;;;;;-145.69;61.19;52349.31;5072895;28;20251;-80
2023/12/01 06:31:35;;;;;;;5.40;3.97;;;;;;;-145.69;61.68;52371.13;5072744;28;20202;-79
2023/12/01 06:34:01;;;;;;;4.70;3.50;;;;;;;-145.69;61.76;52373.09;5072579;28;20198;-80
2023/12/01 06:36:28;;;;;;;4.57;3.00;;;;;;;-145.69;62.13;52365.16;5072811;28;20202;-79
2023/12/01 06:38:55;;;;;;;4.83;3.67;;;;;;;-145.69;61.56;52369.13;5072569;28;20206;-79
2023/12/01 06:41:23;;;;;;;9.27;4.20;;;;;;;-145.69;61.83;52361.22;5054669;28;20203;-79
2023/12/01 06:43:51;;;;;;;6.93;4.60;;;;;;;-145.69;61.38;52377.06;5052567;28;20250;-79
2023/12/01 06:46:17;;;;;;;8.17;4.83;;;;;;;-145.69;61.24;52361.22;5052319;28;20681;-79
2023/12/01 06:48:44;;;;;;;7.13;4.80;;;;;;;-145.69;61.48;52373.09;5052695;28;20661;-79
2023/12/01 06:51:13;;;;;;;7.07;4.70;;;;;;;-145.69;61.37;52400.81;5053219;28;20218;-79
2023/12/01 06:53:40;;;;;;;6.57;4.03;;;;;;;-145.69;61.62;52369.13;5053940;28;20203;-79
2023/12/01 06:56:07;;;;;;;6.33;4.30;;;;;;;-145.69;61.91;52392.91;5056580;28;20229;-79
2023/12/01 06:58:35;;;;;;;4.33;3.23;;;;;;;-145.69;61.92;52345.38;5056416;28;20214;-79
2023/12/01 07:01:01;;;;;;;5.40;4.13;;;;;;;-145.69;62.69;52361.22;5056094;28;20653;-79
2023/12/01 07:03:29;;;;;;;6.80;4.20;;;;;;;-145.69;62.17;52375.06;5056439;28;20562;-79
2023/12/01 07:05:56;;;;;;;7.07;4.73;;;;;;;-145.69;62.25;52357.25;5056311;28;20199;-78
2023/12/01 07:08:23;;;;;;;7.80;4.70;;;;;;;-145.69;62.50;52369.13;5055805;28;20722;-79
2023/12/01 07:10:51;;;;;;;4.97;3.90;;;;;;;-145.69;62.31;52367.16;5069726;28;20199;-79
2023/12/01 07:13:18;;;;;;;6.33;4.20;;;;;;;-145.69;61.80;52353.28;5075640;28;20734;-79
2023/12/01 07:15:47;;;;;;;6.23;4.47;;;;;;;-145.69;61.95;52349.31;5076135;28;20207;-79
2023/12/01 07:18:14;;;;;;;7.00;4.70;;;;;;;-145.69;61.85;52384.97;5076192;28;20210;-79
2023/12/01 07:20:40;;;;;;;6.73;4.20;;;;;;;-145.69;62.04;52396.84;5074415;28;20645;-79
2023/12/01 07:23:09;;;;;;;5.43;4.00;;;;;;;-145.69;61.55;52363.19;5075785;28;20214;-79
2023/12/01 07:25:36;;;;;;;5.73;4.20;;;;;;;-145.69;61.34;52381.00;5075570;28;20231;-79
2023/12/01 07:28:08;;;;;;;5.50;3.90;;;;;;;-145.69;61.85;52343.38;5075811;28;20206;-79
2023/12/01 07:30:34;;;;;;;4.77;3.47;;;;;;;-145.69;62.24;52377.06;5076169;28;20224;-79
2023/12/01 07:33:03;;;;;;;6.63;4.40;;;;;;;-145.69;61.70;52369.13;5075512;28;20284;-79
2023/12/01 07:35:30;;;;;;;7.27;5.00;;;;;;;-145.69;61.87;52373.09;5075796;28;20211;-79
2023/12/01 07:37:56;;;;;;;4.87;3.73;;;;;;;-145.69;61.59;52367.16;5072433;28;20195;-79
2023/12/01 07:40:23;;;;;;;8.40;4.30;;;;;;;-145.69;61.50;52396.84;5074770;28;20191;-79
2023/12/01 07:42:51;;;;;;;5.30;4.60;;;;;;;-145.69;61.57;52361.22;5075191;28;20291;-79
2023/12/01 07:45:18;;;;;;;7.80;4.43;;;;;;;-145.69;61.29;52371.13;5075668;28;20237;-79
2023/12/01 07:47:45;;;;;;;5.73;3.90;;;;;;;-145.69;61.15;52321.59;5075587;28;20256;-79
2023/12/01 07:50:14;;;;;;;6.27;3.93;;;;;;;-145.69;60.61;52410.72;5075142;28;20206;-79
2023/12/01 07:52:41;;;;;;;7.53;4.90;;;;;;;-145.69;60.99;52349.31;5075044;28;20202;-78
2023/12/01 07:55:09;;;;;;;6.40;3.97;;;;;;;-145.69;60.64;52367.16;5074989;28;20289;-79
2023/12/01 07:57:35;;;;;;;11.17;6.43;;;;;;;-145.69;60.69;52345.38;5075466;28;20202;-79
2023/12/01 08:00:02;;;;;;;12.30;6.03;;;;;;;-145.69;60.24;52341.41;5075047;28;20206;-79
2023/12/01 08:02:28;;;;;;;7.87;4.70;;;;;;;-145.69;60.39;52325.56;5075478;28;20207;-79
2023/12/01 08:04:55;;;;;;;5.20;3.20;;;;;;;-145.69;58.99;52377.06;5074434;28;20227;-79
2023/12/01 08:07:23;;;;;;;3.20;2.47;;;;;;;-145.69;59.68;52335.47;5074754;28;20232;-79
2023/12/01 08:09:49;;;;;;;3.83;2.27;;;;;;;-145.69;60.23;52361.22;5074653;28;20731;-79
2023/12/01 08:12:18;;;;;;;2.67;2.33;;;;;;;-145.69;59.91;52355.28;5074783;28;20226;-79
2023/12/01 08:14:45;;;;;;;3.80;2.30;;;;;;;-145.69;60.11;52341.41;5074775;28;20207;-79
2023/12/01 08:17:11;;;;;;;2.77;2.10;;;;;;;-145.69;59.29;52371.13;5075143;28;20228;-79
2023/12/01 08:19:38;;;;;;;3.03;2.70;;;;;;;-145.69;59.41;52359.22;5074519;28;20562;-79
2023/12/01 08:22:05;;;;;;;3.57;2.70;;;;;;;-145.69;59.46;52402.78;5074822;28;20264;-79
2023/12/01 08:24:33;;;;;;;4.90;3.50;;;;;;;-145.69;59.43;52357.25;5075258;28;20223;-79
2023/12/01 08:26:59;;;;;;;4.37;3.27;;;;;;;-145.69;59.79;52355.28;5074738;28;20205;-79
2023/12/01 08:29:26;;;;;;;3.43;3.10;;;;;;;-145.69;59.34;52349.31;5074920;28;20203;-79
2023/12/01 08:31:52;;;;;;;3.30;2.80;;;;;;;-145.69;60.11;52353.28;5074807;28;20213;-79
2023/12/01 08:34:19;;;;;;;4.20;3.07;;;;;;;-145.69;59.90;52321.59;5074629;28;20203;-79
2023/12/01 08:36:45;;;;;;;7.10;5.00;;;;;;;-145.69;59.52;52373.09;5074471;28;20203;-79
2023/12/01 08:39:12;;;;;;;6.70;4.33;;;;;;;-145.69;59.54;52349.31;5074874;28;20195;-79
2023/12/01 08:41:40;;;;;;;6.87;4.40;;;;;;;-145.69;59.38;52351.31;5073291;28;20199;-79
2023/12/01 08:44:06;;;;;;;5.43;4.20;;;;;;;-145.69;59.38;52388.94;5074108;28;20248;-80
2023/12/01 08:46:33;;;;;;;5.17;3.60;;;;;;;-145.69;59.27;52404.78;5074188;28;20199;-79
2023/12/01 08:49:02;;;;;;;5.30;3.43;;;;;;;-145.69;59.73;52365.16;5073762;28;20195;-80
2023/12/01 08:51:28;;;;;;;4.70;3.70;;;;;;;-145.69;59.75;52369.13;5074223;28;20217;-79
2023/12/01 08:53:58;;;;;;;7.63;3.30;;;;;;;-145.69;58.89;52339.44;5074070;28;20198;-80
2023/12/01 08:56:31;;;;;;;4.27;3.23;;;;;;;-145.69;58.51;52359.22;5074248;28;20206;-80
2023/12/01 08:58:59;;;;;;;5.67;3.93;;;;;;;-145.69;58.83;52369.13;5074291;28;20212;-81
2023/12/01 09:01:28;;;;;;;4.83;3.57;;;;;;;-145.69;58.56;52345.38;5074146;28;20214;-81
2023/12/01 09:03:54;;;;;;;5.73;4.00;;;;;;;-145.69;58.08;52329.53;5073485;28;20205;-81
2023/12/01 09:06:21;;;;;;;5.63;3.33;;;;;;;-145.69;58.18;52357.25;5074136;28;20637;-81
2023/12/01 09:08:48;;;;;;;3.90;2.97;;;;;;;-145.69;58.23;52361.22;5073657;28;20231;-81
2023/12/01 09:11:20;;;;;;;4.67;3.17;;;;;;;-145.69;58.63;52367.16;5075373;28;20222;-81
2023/12/01 09:13:47;;;;;;;7.27;4.10;;;;;;;-145.69;59.21;52375.06;5074188;28;20205;-82
2023/12/01 09:16:15;;;;;;;4.87;3.90;;;;;;;-145.69;58.66;52329.53;5073789;28;20561;-82
2023/12/01 09:18:43;;;;;;;5.67;3.93;;;;;;;-145.69;58.43;52343.38;5073358;28;20202;-82
2023/12/01 09:21:09;;;;;;;7.33;4.40;;;;;;;-145.69;58.30;52361.22;5069868;28;20286;-82
2023/12/01 09:23:39;;;;;;;5.43;3.90;;;;;;;-145.69;57.74;52345.38;5072280;28;20201;-82
2023/12/01 09:26:06;;;;;;;8.33;5.20;;;;;;;-145.69;57.99;52347.34;5073670;28;20268;-80
2023/12/01 09:28:33;;;;;;;6.57;4.67;;;;;;;-145.69;57.50;52351.31;5074033;28;20203;-82
2023/12/01 09:31:02;;;;;;;6.40;4.17;;;;;;;-145.69;57.38;52353.28;5073314;28;20206;-81
2023/12/01 09:33:30;;;;;;;7.13;4.00;;;;;;;-145.69;57.74;52335.47;5057695;28;20199;-81
2023/12/01 09:35:57;;;;;;;5.37;3.90;;;;;;;-145.69;57.16;52365.16;5053714;28;20204;-81
2023/12/01 09:38:24;;;;;;;5.30;4.13;;;;;;;-145.69;57.85;52341.41;5053553;28;20203;-81
2023/12/01 09:40:51;;;;;;;5.47;4.10;;;;;;;-145.69;57.43;52341.41;5053337;28;20253;-81
2023/12/01 09:43:19;;;;;;;6.17;4.30;;;;;;;-145.69;56.93;52377.06;5053359;28;20207;-81
2023/12/01 09:45:46;;;;;;;8.93;4.80;;;;;;;-145.69;57.17;52305.75;5053284;28;20728;-81
2023/12/01 09:48:15;;;;;;;6.07;3.97;;;;;;;-145.69;57.23;52299.81;5053003;28;20796;-82
2023/12/01 09:50:44;;;;;;;5.87;4.20;;;;;;;-145.69;56.68;52297.84;5069276;28;20194;-81
2023/12/01 09:53:11;;;;;;;7.97;4.60;;;;;;;-145.69;55.59;52321.59;5073929;28;20230;-81
2023/12/01 09:55:37;;;;;;;5.70;4.00;;;;;;;-145.69;56.00;52337.44;5075261;28;20198;-82
2023/12/01 09:58:04;;;;;;;4.73;3.87;;;;;;;-145.69;56.74;52323.59;5073977;28;20285;-82
2023/12/01 10:00:31;;;;;;;5.43;3.60;;;;;;;-145.69;56.90;52357.25;5073712;28;20203;-82
2023/12/01 10:02:58;;;;;;;6.07;3.93;;;;;;;-145.69;56.57;52357.25;5073856;28;20234;-82
2023/12/01 10:05:25;;;;;;;6.27;3.90;;;;;;;-145.69;56.59;52343.38;5073714;28;20227;-82
2023/12/01 10:07:53;;;;;;;5.90;4.17;;;;;;;-145.69;56.77;52339.44;5073454;28;20269;-82
2023/12/01 10:10:21;;;;;;;4.83;3.47;;;;;;;-145.69;56.31;52309.72;5073297;28;20202;-83
2023/12/01 10:12:55;;;;;;;4.87;3.77;;;;;;;-145.69;55.24;52325.56;5073126;28;20203;-84
2023/12/01 10:15:22;;;;;;;7.30;4.90;;;;;;;-145.69;55.05;52329.53;5073110;28;20740;-83
2023/12/01 10:17:50;;;;;;;5.93;4.70;;;;;;;-145.69;54.66;52331.50;5071503;28;20202;-81
2023/12/01 10:20:21;;;;;;;7.37;4.90;;;;;;;-145.69;54.91;52377.06;5069291;28;20217;-81
2023/12/01 10:22:48;;;;;;;6.17;4.23;;;;;;;-145.69;55.72;52367.16;5068264;28;20201;-81
2023/12/01 10:25:17;;;;;;;7.67;5.23;;;;;;;-145.69;56.07;52359.22;5066371;28;20231;-82
2023/12/01 10:27:54;;;;;;;6.43;4.50;;;;;;;-145.69;55.22;52317.66;5056385;28;20585;-81
2023/12/01 10:30:21;;;;;;;6.57;4.50;;;;;;;-145.69;55.38;52345.38;5072999;28;20267;-83
2023/12/01 10:32:48;;;;;;;6.53;4.33;;;;;;;-145.69;56.02;52359.22;5068356;28;20249;-82
2023/12/01 10:35:15;;;;;;;8.03;4.93;;;;;;;-145.69;55.32;52327.53;5052556;28;20203;-82
2023/12/01 10:37:43;;;;;;;7.83;5.07;;;;;;;-145.69;55.70;52321.59;5055400;28;20202;-81
2023/12/01 10:40:13;;;;;;;5.30;4.10;;;;;;;-145.69;55.41;52283.97;5072575;28;20653;-82
2023/12/01 10:42:45;;;;;;;8.63;4.90;;;;;;;-145.69;55.00;52341.41;5072308;28;20658;-82
2023/12/01 10:45:12;;;;;;;7.07;4.43;;;;;;;-145.69;55.06;52357.25;5072390;28;20222;-82
2023/12/01 10:47:45;;;;;;;5.50;3.97;;;;;;;-145.69;54.19;52369.13;5072319;28;20592;-82
2023/12/01 10:50:13;;;;;;;4.40;3.50;;;;;;;-145.69;54.71;52321.59;5062786;28;20215;-80
2023/12/01 10:52:42;;;;;;;6.27;4.07;;;;;;;-145.69;54.31;52349.31;5054462;28;20206;-83
2023/12/01 10:55:13;;;;;;;11.07;6.00;;;;;;;-145.69;53.58;52363.19;5073121;28;20604;-82
2023/12/01 10:57:44;;;;;;;8.87;5.17;;;;;;;-145.69;54.47;52337.44;5072287;28;20221;-81
2023/12/01 11:00:29;;;;;;;6.83;3.87;;;;;;;-145.69;53.70;52341.41;5072709;28;20256;-82
2023/12/01 11:02:58;;;;;;;5.97;4.00;;;;;;;-145.69;53.17;52329.53;5072705;28;20209;-80
2023/12/01 11:05:26;;;;;;;4.87;3.67;;;;;;;-145.69;53.78;52325.56;5071988;28;20693;-80
2023/12/01 11:08:07;;;;;;;5.63;3.87;;;;;;;-145.69;53.78;52331.50;5071935;28;21098;-82
2023/12/01 11:10:42;;;;;;;4.87;3.93;;;;;;;-145.69;54.28;52337.44;5067529;28;20230;-83
2023/12/01 11:13:20;;;;;;;4.00;3.10;;;;;;;-145.69;53.78;52367.16;5061369;28;20214;-82
2023/12/01 11:15:50;;;;;;;3.37;2.73;;;;;;;-145.69;53.67;52349.31;5054736;28;20230;-82
2023/12/01 11:18:17;;;;;;;4.57;3.63;;;;;;;-145.69;53.83;52353.28;5052218;28;20206;-82